Time;durP1;ratioP1;P1;durP2;ratioP2;P2;SDS_P1;SDS_P2;PMS_P1;PMS_P2;Temp;Humidity;BMP_temperature;BMP_pressure;BME280_temperature;BME280_humidity;BME280_pressure;Samples;Min_cycle;Max_cycle;Signal;HPM_P1;HPM_P2
2023/07/06 00:00:40;;;;;;;19.27;10.77;;;;;;;;;;5050537;28;20091;-60
2023/07/06 00:03:06;;;;;;;15.90;10.27;;;;;;;;;;5051121;28;20049;-60
2023/07/06 00:05:33;;;;;;;17.40;11.23;;;;;;;;;;5050587;28;20087;-59
2023/07/06 00:08:00;;;;;;;18.80;11.33;;;;;;;;;;5057602;28;20620;-60
2023/07/06 00:10:26;;;;;;;20.00;11.13;;;;;;;;;;5070926;28;20048;-60
2023/07/06 00:12:52;;;;;;;15.57;10.87;;;;;;;;;;5070909;28;20478;-59
2023/07/06 00:15:18;;;;;;;14.30;10.87;;;;;;;;;;5070042;28;20072;-60
2023/07/06 00:17:44;;;;;;;20.13;10.93;;;;;;;;;;5070717;28;20143;-60
2023/07/06 00:20:12;;;;;;;19.10;11.37;;;;;;;;;;5069745;28;20136;-60
2023/07/06 00:22:38;;;;;;;21.13;11.63;;;;;;;;;;5060356;28;20053;-59
2023/07/06 00:25:04;;;;;;;18.87;12.03;;;;;;;;;;5049817;28;20074;-60
2023/07/06 00:27:31;;;;;;;17.43;11.80;;;;;;;;;;5050755;28;20037;-60
2023/07/06 00:30:07;;;;;;;18.17;11.73;;;;;;;;;;5050097;28;20052;-60
2023/07/06 00:32:33;;;;;;;21.13;11.90;;;;;;;;;;5050544;28;20551;-60
2023/07/06 00:35:00;;;;;;;19.37;12.30;;;;;;;;;;5049528;28;20084;-59
2023/07/06 00:37:26;;;;;;;16.73;11.03;;;;;;;;;;5050399;28;20437;-59
2023/07/06 00:39:53;;;;;;;20.73;12.53;;;;;;;;;;5050364;28;20482;-60
2023/07/06 00:42:20;;;;;;;17.63;11.13;;;;;;;;;;5049874;28;20044;-59
2023/07/06 00:44:52;;;;;;;19.13;12.53;;;;;;;;;;5050311;28;20041;-59
2023/07/06 00:47:23;;;;;;;18.50;11.77;;;;;;;;;;5050016;28;20053;-60
2023/07/06 00:49:50;;;;;;;22.03;12.07;;;;;;;;;;5050314;28;20087;-59
2023/07/06 00:52:15;;;;;;;17.70;11.30;;;;;;;;;;5049983;28;20048;-59
2023/07/06 00:54:42;;;;;;;20.93;12.80;;;;;;;;;;5049600;28;20407;-59
2023/07/06 00:57:11;;;;;;;22.43;12.23;;;;;;;;;;5050007;28;20103;-59
2023/07/06 00:59:40;;;;;;;22.77;12.77;;;;;;;;;;5064823;28;20040;-59
2023/07/06 01:02:08;;;;;;;22.17;13.43;;;;;;;;;;5069537;28;20040;-59
2023/07/06 01:04:34;;;;;;;16.03;11.73;;;;;;;;;;5050082;28;20045;-59
2023/07/06 01:07:01;;;;;;;18.37;11.70;;;;;;;;;;5048806;28;20455;-60
2023/07/06 01:09:29;;;;;;;22.23;13.13;;;;;;;;;;5050013;28;20131;-60
2023/07/06 01:11:55;;;;;;;20.80;12.30;;;;;;;;;;5047612;28;20136;-60
2023/07/06 01:14:21;;;;;;;23.33;13.50;;;;;;;;;;5049533;28;20178;-59
2023/07/06 01:17:08;;;;;;;17.10;12.13;;;;;;;;;;5049583;28;20071;-59
2023/07/06 01:19:53;;;;;;;22.97;13.50;;;;;;;;;;5049335;28;20049;-59
2023/07/06 01:22:31;;;;;;;16.97;11.87;;;;;;;;;;5049262;28;20491;-60
2023/07/06 01:25:04;;;;;;;19.17;12.10;;;;;;;;;;5064585;28;20076;-59
2023/07/06 01:27:59;;;;;;;24.60;13.60;;;;;;;;;;5064987;28;20487;-59
2023/07/06 01:30:36;;;;;;;27.83;14.17;;;;;;;;;;5043872;28;20191;-59
2023/07/06 01:33:11;;;;;;;23.87;13.47;;;;;;;;;;5049054;28;20053;-60
2023/07/06 01:35:42;;;;;;;27.53;13.23;;;;;;;;;;5048969;28;20130;-59
2023/07/06 01:38:09;;;;;;;25.47;15.37;;;;;;;;;;5049360;28;20053;-59
2023/07/06 01:40:35;;;;;;;20.00;13.43;;;;;;;;;;5048438;28;20045;-59
2023/07/06 01:43:01;;;;;;;31.17;15.80;;;;;;;;;;5049017;28;20098;-59
2023/07/06 01:45:28;;;;;;;26.10;15.03;;;;;;;;;;5049173;28;20477;-59
2023/07/06 01:47:59;;;;;;;26.03;13.70;;;;;;;;;;5049158;28;20095;-60
2023/07/06 01:50:32;;;;;;;29.27;14.60;;;;;;;;;;5048913;28;20041;-59
2023/07/06 01:53:11;;;;;;;22.27;14.82;;;;;;;;;;5048611;28;20135;-59
2023/07/06 01:55:43;;;;;;;24.10;14.20;;;;;;;;;;5049034;28;20484;-59
2023/07/06 01:58:23;;;;;;;20.20;13.57;;;;;;;;;;5052764;28;20520;-59
2023/07/06 02:00:51;;;;;;;29.57;16.73;;;;;;;;;;5068797;28;20059;-59
2023/07/06 02:03:17;;;;;;;24.23;13.93;;;;;;;;;;5068910;28;20504;-59
2023/07/06 02:05:43;;;;;;;27.17;15.43;;;;;;;;;;5068853;28;20045;-59
2023/07/06 02:08:10;;;;;;;20.17;13.90;;;;;;;;;;5051824;28;20056;-59
2023/07/06 02:10:37;;;;;;;21.50;14.57;;;;;;;;;;5055684;28;20040;-59
2023/07/06 02:13:03;;;;;;;24.23;13.40;;;;;;;;;;5068815;28;20049;-60
2023/07/06 02:15:30;;;;;;;25.57;14.70;;;;;;;;;;5068488;28;20098;-59
2023/07/06 02:17:56;;;;;;;20.90;14.70;;;;;;;;;;5068636;28;20044;-59
2023/07/06 02:20:22;;;;;;;27.13;15.30;;;;;;;;;;5068745;28;20044;-59
2023/07/06 02:22:49;;;;;;;26.80;15.03;;;;;;;;;;5068783;28;20170;-59
2023/07/06 02:25:15;;;;;;;29.40;15.37;;;;;;;;;;5068745;28;20041;-59
2023/07/06 02:27:41;;;;;;;31.13;16.87;;;;;;;;;;5067347;28;20048;-59
2023/07/06 02:30:07;;;;;;;28.40;15.33;;;;;;;;;;5067994;28;20048;-59
2023/07/06 02:32:34;;;;;;;24.33;14.37;;;;;;;;;;5068353;28;20055;-60
2023/07/06 02:35:02;;;;;;;27.13;15.13;;;;;;;;;;5068141;28;20473;-59
2023/07/06 02:37:28;;;;;;;25.10;14.80;;;;;;;;;;5067920;28;20059;-59
2023/07/06 02:39:58;;;;;;;32.63;15.87;;;;;;;;;;5067594;28;20041;-59
2023/07/06 02:42:24;;;;;;;26.00;16.00;;;;;;;;;;5068385;28;20495;-59
2023/07/06 02:44:50;;;;;;;29.60;16.43;;;;;;;;;;5068551;28;20047;-59
2023/07/06 02:47:16;;;;;;;24.97;15.47;;;;;;;;;;5067789;28;20135;-60
2023/07/06 02:49:42;;;;;;;28.73;16.40;;;;;;;;;;5068465;28;20037;-60
2023/07/06 02:52:08;;;;;;;32.77;16.23;;;;;;;;;;5068165;28;20056;-59
2023/07/06 02:54:34;;;;;;;24.87;14.87;;;;;;;;;;5068567;28;20438;-59
2023/07/06 02:57:03;;;;;;;27.80;16.60;;;;;;;;;;5068356;28;20044;-59
2023/07/06 02:59:32;;;;;;;24.43;15.10;;;;;;;;;;5058611;28;20037;-59
2023/07/06 03:01:59;;;;;;;30.10;15.57;;;;;;;;;;5048753;28;20055;-60
2023/07/06 03:04:27;;;;;;;25.30;14.57;;;;;;;;;;5048500;28;20040;-59
2023/07/06 03:06:55;;;;;;;28.13;15.53;;;;;;;;;;5048322;28;20045;-59
2023/07/06 03:09:21;;;;;;;27.13;15.30;;;;;;;;;;5054817;28;20088;-60
2023/07/06 03:11:49;;;;;;;26.80;15.17;;;;;;;;;;5047739;28;20152;-60
2023/07/06 03:14:15;;;;;;;29.33;14.50;;;;;;;;;;5048360;28;20053;-59
2023/07/06 03:16:41;;;;;;;27.90;15.43;;;;;;;;;;5048173;28;20084;-59
2023/07/06 03:19:08;;;;;;;27.93;16.33;;;;;;;;;;5053006;28;20059;-59
2023/07/06 03:21:34;;;;;;;23.30;15.13;;;;;;;;;;5064949;28;20486;-59
2023/07/06 03:24:00;;;;;;;26.40;15.53;;;;;;;;;;5048481;28;20475;-59
2023/07/06 03:26:26;;;;;;;29.67;14.77;;;;;;;;;;5047994;28;20128;-60
2023/07/06 03:28:52;;;;;;;34.47;16.43;;;;;;;;;;5047779;28;20481;-59
2023/07/06 03:31:19;;;;;;;28.33;15.83;;;;;;;;;;5054759;28;20045;-59
2023/07/06 03:33:45;;;;;;;21.70;13.80;;;;;;;;;;5067765;28;20061;-60
2023/07/06 03:36:11;;;;;;;29.77;15.33;;;;;;;;;;5069859;28;20052;-59
2023/07/06 03:38:37;;;;;;;26.90;15.30;;;;;;;;;;5071217;28;20118;-59
2023/07/06 03:41:04;;;;;;;28.03;17.10;;;;;;;;;;5067433;28;20068;-60
2023/07/06 03:43:31;;;;;;;30.60;14.80;;;;;;;;;;5051079;28;20511;-60
2023/07/06 03:45:59;;;;;;;25.10;13.97;;;;;;;;;;5065419;28;20045;-60
2023/07/06 03:48:26;;;;;;;25.33;14.87;;;;;;;;;;5071369;28;20131;-59
2023/07/06 03:50:52;;;;;;;32.07;17.03;;;;;;;;;;5070913;28;20135;-60
2023/07/06 03:53:22;;;;;;;34.50;15.73;;;;;;;;;;5070786;28;20040;-59
2023/07/06 03:55:52;;;;;;;31.53;15.90;;;;;;;;;;5071441;28;20414;-59
2023/07/06 03:58:20;;;;;;;27.97;14.73;;;;;;;;;;5068873;28;20517;-59
2023/07/06 04:00:47;;;;;;;28.07;15.10;;;;;;;;;;5062090;28;20124;-60
2023/07/06 04:03:13;;;;;;;23.83;13.27;;;;;;;;;;5070604;28;20054;-60
2023/07/06 04:05:44;;;;;;;30.60;14.63;;;;;;;;;;5071138;28;20063;-60
2023/07/06 04:08:12;;;;;;;30.23;14.13;;;;;;;;;;5068747;28;20056;-60
2023/07/06 04:10:39;;;;;;;27.43;13.63;;;;;;;;;;5070913;28;20047;-59
2023/07/06 04:13:05;;;;;;;29.60;14.50;;;;;;;;;;5070736;28;20079;-60
2023/07/06 04:15:31;;;;;;;26.43;14.60;;;;;;;;;;5070775;28;20498;-60
2023/07/06 04:17:57;;;;;;;23.60;14.47;;;;;;;;;;5070368;28;20084;-60
2023/07/06 04:20:25;;;;;;;25.80;13.77;;;;;;;;;;5067232;28;20119;-59
2023/07/06 04:22:54;;;;;;;26.83;13.73;;;;;;;;;;5050082;28;20102;-59
2023/07/06 04:25:22;;;;;;;26.13;13.27;;;;;;;;;;5050825;28;20045;-59
2023/07/06 04:27:48;;;;;;;24.90;13.23;;;;;;;;;;5050267;28;20041;-59
2023/07/06 04:30:15;;;;;;;29.10;14.30;;;;;;;;;;5050334;28;20503;-59
2023/07/06 04:32:41;;;;;;;24.50;15.00;;;;;;;;;;5048572;28;20060;-59
2023/07/06 04:35:10;;;;;;;36.07;15.80;;;;;;;;;;5050714;28;20417;-59
2023/07/06 04:37:37;;;;;;;28.40;14.60;;;;;;;;;;5064679;28;20041;-59
2023/07/06 04:40:11;;;;;;;30.20;15.07;;;;;;;;;;5070344;28;20045;-60
2023/07/06 04:42:37;;;;;;;28.17;15.40;;;;;;;;;;5070001;28;20044;-59
2023/07/06 04:45:04;;;;;;;32.33;14.60;;;;;;;;;;5069791;28;20090;-59
2023/07/06 04:47:30;;;;;;;23.97;14.23;;;;;;;;;;5069172;28;20044;-59
2023/07/06 04:49:56;;;;;;;28.37;14.80;;;;;;;;;;5070085;28;20047;-59
2023/07/06 04:52:22;;;;;;;27.00;15.23;;;;;;;;;;5069704;28;20462;-59
2023/07/06 04:54:50;;;;;;;27.70;15.10;;;;;;;;;;5057162;28;20041;-59
2023/07/06 04:57:16;;;;;;;24.67;14.17;;;;;;;;;;5050140;28;20053;-59
2023/07/06 04:59:43;;;;;;;21.27;14.30;;;;;;;;;;5050038;28;20045;-59
2023/07/06 05:02:10;;;;;;;28.83;14.60;;;;;;;;;;5061341;28;20049;-59
2023/07/06 05:04:40;;;;;;;26.47;14.83;;;;;;;;;;5050169;28;20056;-59
2023/07/06 05:07:07;;;;;;;26.73;14.47;;;;;;;;;;5049587;28;20063;-59
2023/07/06 05:09:34;;;;;;;26.23;14.87;;;;;;;;;;5049746;28;20049;-59
2023/07/06 05:12:00;;;;;;;28.37;15.17;;;;;;;;;;5049566;28;20141;-59
2023/07/06 05:14:26;;;;;;;29.23;14.13;;;;;;;;;;5049611;28;20037;-59
2023/07/06 05:16:52;;;;;;;30.77;15.00;;;;;;;;;;5049637;28;20060;-59
2023/07/06 05:19:18;;;;;;;27.47;14.50;;;;;;;;;;5048650;28;20499;-60
2023/07/06 05:21:44;;;;;;;27.60;14.43;;;;;;;;;;5060735;28;20055;-59
2023/07/06 05:24:10;;;;;;;20.23;13.30;;;;;;;;;;5069176;28;20040;-59
2023/07/06 05:26:36;;;;;;;21.57;13.97;;;;;;;;;;5069200;28;20052;-59
2023/07/06 05:29:02;;;;;;;26.03;14.80;;;;;;;;;;5062735;28;20048;-59
2023/07/06 05:31:28;;;;;;;22.30;12.30;;;;;;;;;;5049527;28;20062;-59
2023/07/06 05:33:54;;;;;;;22.70;14.03;;;;;;;;;;5066578;28;20131;-59
2023/07/06 05:36:20;;;;;;;19.77;12.50;;;;;;;;;;5068988;28;20052;-60
2023/07/06 05:38:46;;;;;;;17.53;11.63;;;;;;;;;;5068694;28;20481;-59
2023/07/06 05:41:12;;;;;;;22.70;12.53;;;;;;;;;;5068715;28;20457;-60
2023/07/06 05:43:38;;;;;;;25.00;11.80;;;;;;;;;;5068919;28;20055;-59
2023/07/06 05:46:04;;;;;;;24.80;12.70;;;;;;;;;;5068881;28;20048;-59
2023/07/06 05:48:30;;;;;;;20.60;10.80;;;;;;;;;;5066057;28;20319;-59
2023/07/06 05:50:57;;;;;;;20.47;10.77;;;;;;;;;;5067964;28;20048;-59
2023/07/06 05:53:23;;;;;;;15.10;10.57;;;;;;;;;;5069134;28;20075;-59
2023/07/06 05:55:50;;;;;;;19.90;11.03;;;;;;;;;;5068752;28;20129;-59
2023/07/06 05:58:16;;;;;;;20.77;10.70;;;;;;;;;;5068328;28;20064;-59
2023/07/06 06:00:43;;;;;;;23.73;11.13;;;;;;;;;;5068567;28;20048;-59
2023/07/06 06:03:09;;;;;;;25.70;9.63;;;;;;;;;;5068690;28;20051;-59
2023/07/06 06:05:35;;;;;;;19.30;10.33;;;;;;;;;;5054238;28;20053;-59
2023/07/06 06:08:02;;;;;;;18.73;9.90;;;;;;;;;;5048309;28;20049;-59
2023/07/06 06:10:28;;;;;;;19.13;9.77;;;;;;;;;;5048710;28;20529;-59
2023/07/06 06:12:55;;;;;;;16.23;10.23;;;;;;;;;;5047795;28;20045;-59
2023/07/06 06:15:21;;;;;;;20.80;9.10;;;;;;;;;;5047676;28;20045;-59
2023/07/06 06:17:48;;;;;;;20.70;9.60;;;;;;;;;;5055510;28;20040;-59
2023/07/06 06:20:14;;;;;;;19.80;9.40;;;;;;;;;;5052758;28;20125;-59
2023/07/06 06:22:40;;;;;;;22.00;8.87;;;;;;;;;;5048528;28;20123;-59
2023/07/06 06:25:07;;;;;;;20.57;9.03;;;;;;;;;;5048148;28;20462;-59
2023/07/06 06:27:33;;;;;;;18.47;9.10;;;;;;;;;;5048173;28;20052;-59
2023/07/06 06:29:59;;;;;;;18.50;9.53;;;;;;;;;;5048065;28;20068;-59
2023/07/06 06:32:25;;;;;;;20.17;9.27;;;;;;;;;;5048416;28;20059;-60
2023/07/06 06:34:52;;;;;;;16.10;8.73;;;;;;;;;;5048202;28;20049;-59
2023/07/06 06:37:18;;;;;;;19.67;9.73;;;;;;;;;;5048276;28;20095;-59
2023/07/06 06:39:44;;;;;;;18.70;9.37;;;;;;;;;;5048109;28;20045;-59
2023/07/06 06:42:13;;;;;;;19.07;9.07;;;;;;;;;;5047439;28;20165;-59
2023/07/06 06:44:40;;;;;;;19.27;9.03;;;;;;;;;;5047673;28;20072;-60
2023/07/06 06:47:06;;;;;;;21.47;9.40;;;;;;;;;;5046731;28;20056;-60
2023/07/06 06:49:35;;;;;;;22.70;10.43;;;;;;;;;;5048124;28;20499;-61
2023/07/06 06:52:02;;;;;;;20.90;8.87;;;;;;;;;;5054517;28;20058;-60
2023/07/06 06:54:30;;;;;;;22.43;10.33;;;;;;;;;;5063376;28;20502;-60
2023/07/06 06:56:56;;;;;;;19.10;9.03;;;;;;;;;;5057934;28;20566;-60
2023/07/06 06:59:22;;;;;;;19.07;8.73;;;;;;;;;;5057320;28;20249;-60
2023/07/06 07:01:50;;;;;;;18.33;9.30;;;;;;;;;;5064041;28;20055;-60
2023/07/06 07:04:16;;;;;;;19.50;9.37;;;;;;;;;;5066021;28;20044;-60
2023/07/06 07:06:42;;;;;;;20.87;10.20;;;;;;;;;;5048502;28;20051;-59
2023/07/06 07:09:10;;;;;;;23.67;8.50;;;;;;;;;;5061495;28;20049;-60
2023/07/06 07:11:36;;;;;;;17.03;7.63;;;;;;;;;;5069822;28;20052;-59
2023/07/06 07:14:03;;;;;;;19.47;9.17;;;;;;;;;;5070308;28;20037;-59
2023/07/06 07:16:29;;;;;;;19.37;8.13;;;;;;;;;;5068875;28;20139;-59
2023/07/06 07:18:55;;;;;;;13.70;7.70;;;;;;;;;;5060382;28;20178;-60
2023/07/06 07:21:21;;;;;;;16.23;7.77;;;;;;;;;;5068708;28;20044;-60
2023/07/06 07:23:49;;;;;;;17.67;8.33;;;;;;;;;;5069902;28;20048;-60
2023/07/06 07:26:15;;;;;;;20.37;8.60;;;;;;;;;;5057106;28;20045;-60
2023/07/06 07:28:41;;;;;;;17.60;8.67;;;;;;;;;;5063493;28;20056;-60
2023/07/06 07:31:11;;;;;;;18.80;8.43;;;;;;;;;;5064244;28;20060;-60
2023/07/06 07:33:37;;;;;;;20.67;8.97;;;;;;;;;;5069406;28;20141;-60
2023/07/06 07:36:03;;;;;;;18.23;8.40;;;;;;;;;;5068472;28;20352;-60
2023/07/06 07:38:29;;;;;;;15.37;8.77;;;;;;;;;;5051475;28;20064;-60
2023/07/06 07:40:57;;;;;;;16.63;8.57;;;;;;;;;;5068451;28;20107;-59
2023/07/06 07:43:27;;;;;;;17.60;8.50;;;;;;;;;;5067452;28;20044;-60
2023/07/06 07:45:58;;;;;;;17.47;8.53;;;;;;;;;;5070120;28;20558;-60
2023/07/06 07:48:24;;;;;;;15.67;7.00;;;;;;;;;;5070797;28;20052;-61
2023/07/06 07:50:51;;;;;;;15.40;7.50;;;;;;;;;;5071143;28;20506;-60
2023/07/06 07:53:18;;;;;;;12.73;6.33;;;;;;;;;;5070702;28;20048;-60
2023/07/06 07:55:44;;;;;;;12.77;6.00;;;;;;;;;;5070345;28;20044;-60
2023/07/06 07:58:10;;;;;;;19.33;6.93;;;;;;;;;;5070559;28;20052;-61
2023/07/06 08:00:36;;;;;;;11.47;5.30;;;;;;;;;;5070049;28;20044;-60
2023/07/06 08:03:06;;;;;;;16.63;6.63;;;;;;;;;;5054072;28;20507;-60
2023/07/06 08:05:32;;;;;;;11.60;5.50;;;;;;;;;;5068678;28;20056;-61
2023/07/06 08:07:58;;;;;;;14.43;4.93;;;;;;;;;;5058957;28;20052;-61
2023/07/06 08:10:24;;;;;;;11.00;5.00;;;;;;;;;;5059686;28;20049;-61
2023/07/06 08:12:50;;;;;;;11.67;5.00;;;;;;;;;;5050763;28;20178;-61
2023/07/06 08:15:16;;;;;;;10.73;5.20;;;;;;;;;;5049931;28;20129;-61
2023/07/06 08:17:42;;;;;;;10.03;4.50;;;;;;;;;;5050522;28;20056;-60
2023/07/06 08:20:13;;;;;;;8.97;3.97;;;;;;;;;;5050426;28;20087;-61
2023/07/06 08:22:40;;;;;;;10.50;3.60;;;;;;;;;;5053174;28;20044;-61
2023/07/06 08:25:08;;;;;;;9.40;3.97;;;;;;;;;;5068836;28;20055;-61
2023/07/06 08:27:35;;;;;;;10.87;4.50;;;;;;;;;;5069810;28;20068;-61
2023/07/06 08:30:01;;;;;;;6.73;3.27;;;;;;;;;;5069828;28;20040;-61
2023/07/06 08:32:27;;;;;;;9.97;3.60;;;;;;;;;;5068618;28;20088;-61
2023/07/06 08:34:54;;;;;;;9.27;3.67;;;;;;;;;;5049223;28;20119;-61
2023/07/06 08:37:20;;;;;;;9.07;3.07;;;;;;;;;;5050153;28;20048;-61
2023/07/06 08:39:46;;;;;;;9.40;3.80;;;;;;;;;;5049939;28;20416;-60
2023/07/06 08:42:14;;;;;;;8.30;3.50;;;;;;;;;;5066936;28;20049;-61
2023/07/06 08:44:42;;;;;;;11.07;3.43;;;;;;;;;;5069257;28;20078;-61
2023/07/06 08:47:09;;;;;;;10.13;4.33;;;;;;;;;;5068592;28;20041;-61
2023/07/06 08:49:37;;;;;;;8.83;3.70;;;;;;;;;;5069572;28;20059;-61
2023/07/06 08:52:05;;;;;;;6.77;3.20;;;;;;;;;;5060688;28;20040;-61
2023/07/06 08:54:33;;;;;;;9.50;3.27;;;;;;;;;;5049750;28;20096;-61
2023/07/06 08:57:00;;;;;;;9.90;3.10;;;;;;;;;;5065987;28;20707;-60
2023/07/06 08:59:26;;;;;;;7.10;2.93;;;;;;;;;;5069269;28;20076;-60
2023/07/06 09:01:53;;;;;;;9.43;3.00;;;;;;;;;;5069440;28;20064;-60
2023/07/06 09:04:20;;;;;;;8.53;3.40;;;;;;;;;;5069583;28;20045;-61
2023/07/06 09:06:52;;;;;;;8.80;3.40;;;;;;;;;;5069363;28;20484;-61
2023/07/06 09:09:19;;;;;;;11.70;3.45;;;;;;;;;;5069356;28;20061;-61
2023/07/06 09:11:46;;;;;;;10.53;3.23;;;;;;;;;;5060678;28;20128;-61
2023/07/06 09:14:18;;;;;;;11.40;4.03;;;;;;;;;;5060123;28;20090;-61
2023/07/06 09:16:55;;;;;;;12.30;2.95;;;;;;;;;;5069310;28;20051;-60
2023/07/06 09:19:21;;;;;;;6.30;2.67;;;;;;;;;;5069125;28;20052;-60
2023/07/06 09:21:47;;;;;;;8.67;3.33;;;;;;;;;;5069392;28;20041;-60
2023/07/06 09:24:14;;;;;;;6.33;2.10;;;;;;;;;;5060743;28;20370;-60
2023/07/06 09:26:42;;;;;;;7.50;2.37;;;;;;;;;;5050104;28;20045;-60
2023/07/06 09:29:11;;;;;;;8.80;2.43;;;;;;;;;;5053825;28;20107;-60
2023/07/06 09:31:37;;;;;;;6.23;3.03;;;;;;;;;;5057096;28;20098;-60
2023/07/06 09:34:10;;;;;;;5.87;3.13;;;;;;;;;;5046395;28;20052;-59
2023/07/06 09:36:36;;;;;;;8.35;3.08;;;;;;;;;;5048912;28;20088;-60
2023/07/06 09:39:09;;;;;;;6.93;2.30;;;;;;;;;;5047666;28;20050;-60
2023/07/06 09:41:43;;;;;;;12.38;3.25;;;;;;;;;;5048734;28;20510;-60
2023/07/06 09:44:13;;;;;;;8.90;2.47;;;;;;;;;;5048688;28;20128;-60
2023/07/06 09:46:39;;;;;;;9.77;2.60;;;;;;;;;;5048481;28;20048;-60
2023/07/06 09:49:14;;;;;;;11.33;3.03;;;;;;;;;;5051564;28;20495;-60
2023/07/06 09:51:50;;;;;;;9.03;3.10;;;;;;;;;;5065368;28;20479;-60
2023/07/06 09:54:25;;;;;;;5.30;2.27;;;;;;;;;;5058855;28;20399;-60
2023/07/06 09:56:51;;;;;;;6.37;1.90;;;;;;;;;;5065746;28;20048;-60
2023/07/06 09:59:18;;;;;;;3.87;1.83;;;;;;;;;;5068330;28;20097;-60
2023/07/06 10:01:53;;;;;;;7.50;2.00;;;;;;;;;;5068001;28;20422;-60
2023/07/06 10:04:28;;;;;;;6.17;1.73;;;;;;;;;;5068075;28;20052;-61
2023/07/06 10:07:07;;;;;;;6.30;2.23;;;;;;;;;;5068261;28;20043;-60
2023/07/06 10:09:35;;;;;;;4.57;1.70;;;;;;;;;;5068334;28;20083;-61
2023/07/06 10:12:08;;;;;;;5.53;2.00;;;;;;;;;;5067557;28;20044;-61
2023/07/06 10:14:47;;;;;;;5.37;1.83;;;;;;;;;;5049955;28;20060;-60
2023/07/06 10:17:45;;;;;;;6.93;1.70;;;;;;;;;;5048108;28;20041;-60
2023/07/06 10:20:18;;;;;;;6.63;2.00;;;;;;;;;;5037914;28;20056;-61
2023/07/06 10:22:44;;;;;;;;;;;;;;;;;;5068394;28;20043;-61
2023/07/06 10:25:11;;;;;;;5.40;1.83;;;;;;;;;;5059345;28;19924;-61
2023/07/06 10:27:41;;;;;;;4.57;2.37;;;;;;;;;;5047935;28;20049;-61
2023/07/06 10:30:08;;;;;;;5.90;2.07;;;;;;;;;;5055581;28;20044;-61
2023/07/06 10:32:44;;;;;;;6.23;2.60;;;;;;;;;;5067711;28;20048;-60
2023/07/06 10:35:14;;;;;;;6.10;2.17;;;;;;;;;;5067766;28;20106;-60
2023/07/06 10:37:42;;;;;;;6.87;2.23;;;;;;;;;;5067915;28;20518;-61
2023/07/06 10:40:20;;;;;;;6.63;2.13;;;;;;;;;;5063876;28;20037;-60
2023/07/06 10:42:49;;;;;;;7.60;2.37;;;;;;;;;;5047593;28;20114;-60
2023/07/06 10:45:42;;;;;;;7.80;2.23;;;;;;;;;;5048585;28;20442;-60
2023/07/06 10:48:28;;;;;;;7.70;2.25;;;;;;;;;;5050647;28;20134;-61
2023/07/06 10:51:06;;;;;;;6.63;2.50;;;;;;;;;;5052038;28;20056;-60
2023/07/06 10:53:43;;;;;;;7.43;2.63;;;;;;;;;;5051988;28;20136;-60
2023/07/06 10:56:12;;;;;;;6.67;2.70;;;;;;;;;;5061235;28;20110;-60
2023/07/06 10:58:57;;;;;;;8.20;2.90;;;;;;;;;;5071447;28;20049;-60
2023/07/06 11:01:31;;;;;;;8.77;2.83;;;;;;;;;;5060199;28;20048;-60
2023/07/06 11:04:00;;;;;;;6.77;2.30;;;;;;;;;;5058589;28;20058;-60
2023/07/06 11:06:42;;;;;;;5.93;2.50;;;;;;;;;;5069382;28;20102;-60
2023/07/06 11:09:08;;;;;;;5.55;2.08;;;;;;;;;;5071481;28;20055;-60
2023/07/06 11:11:35;;;;;;;6.10;2.55;;;;;;;;;;5069753;28;20127;-60
2023/07/06 11:14:13;;;;;;;6.78;2.75;;;;;;;;;;5069241;28;20037;-60
2023/07/06 11:16:43;;;;;;;6.28;2.42;;;;;;;;;;5068156;28;20048;-60
2023/07/06 11:19:14;;;;;;;4.25;1.98;;;;;;;;;;5071013;28;20053;-60
2023/07/06 11:21:46;;;;;;;4.20;1.42;;;;;;;;;;5069353;28;20048;-60
2023/07/06 11:24:16;;;;;;;2.45;1.40;;;;;;;;;;5053794;28;20076;-60
2023/07/06 11:26:45;;;;;;;5.03;1.75;;;;;;;;;;5062425;28;20049;-60
2023/07/06 11:29:11;;;;;;;5.50;2.30;;;;;;;;;;5064355;28;20052;-60
2023/07/06 11:31:47;;;;;;;4.07;1.50;;;;;;;;;;5070374;28;20041;-60
2023/07/06 11:34:22;;;;;;;4.63;1.98;;;;;;;;;;5069212;28;20603;-60
2023/07/06 11:36:57;;;;;;;6.38;2.47;;;;;;;;;;5069914;28;20500;-60
2023/07/06 11:39:42;;;;;;;4.55;2.30;;;;;;;;;;5070240;28;20051;-60
2023/07/06 11:42:17;;;;;;;4.63;2.00;;;;;;;;;;5069697;28;20613;-61
2023/07/06 11:44:49;;;;;;;7.07;2.88;;;;;;;;;;5068975;28;20843;-60
2023/07/06 11:47:24;;;;;;;6.82;1.90;;;;;;;;;;5056979;28;20053;-60
2023/07/06 11:49:51;;;;;;;10.07;2.47;;;;;;;;;;5067860;28;20423;-61
2023/07/06 11:52:22;;;;;;;9.90;2.72;;;;;;;;;;5068659;28;20468;-61
2023/07/06 11:55:05;;;;;;;7.13;1.92;;;;;;;;;;5066544;28;20657;-61
2023/07/06 11:57:43;;;;;;;5.43;2.15;;;;;;;;;;5068312;28;20554;-60
2023/07/06 12:02:43;;;;;;;7.85;2.58;;;;;;;;;;5069538;28;20070;-60
2023/07/06 12:05:26;;;;;;;6.32;2.30;;;;;;;;;;5069853;28;20063;-61
2023/07/06 12:07:57;;;;;;;5.50;2.33;;;;;;;;;;5070465;28;20127;-60
2023/07/06 12:10:23;;;;;;;5.10;1.70;;;;;;;;;;5068740;28;20494;-60
2023/07/06 12:12:50;;;;;;;5.50;2.28;;;;;;;;;;5068646;28;20055;-60
2023/07/06 12:15:16;;;;;;;6.90;2.20;;;;;;;;;;5069657;28;20130;-61
2023/07/06 12:17:43;;;;;;;3.80;1.60;;;;;;;;;;5070112;28;20052;-60
2023/07/06 12:20:11;;;;;;;4.88;2.67;;;;;;;;;;5068162;28;20056;-60
2023/07/06 12:22:50;;;;;;;6.95;2.50;;;;;;;;;;5069062;28;20052;-60
2023/07/06 12:25:20;;;;;;;8.10;3.00;;;;;;;;;;5069991;28;20045;-60
2023/07/06 12:27:46;;;;;;;5.85;2.47;;;;;;;;;;5065980;28;20045;-60
2023/07/06 12:30:14;;;;;;;5.45;2.83;;;;;;;;;;5048243;28;20059;-60
2023/07/06 12:32:43;;;;;;;5.35;2.50;;;;;;;;;;5048993;28;20473;-60
2023/07/06 12:35:11;;;;;;;5.78;2.88;;;;;;;;;;5050656;28;20140;-61
2023/07/06 12:37:41;;;;;;;5.65;2.75;;;;;;;;;;5049834;28;20037;-60
2023/07/06 12:40:18;;;;;;;9.35;2.50;;;;;;;;;;5050389;28;20378;-60
2023/07/06 12:42:44;;;;;;;6.43;3.07;;;;;;;;;;5049567;28;20517;-60
2023/07/06 12:45:14;;;;;;;7.93;2.43;;;;;;;;;;5054567;28;20041;-60
2023/07/06 12:47:40;;;;;;;7.17;2.60;;;;;;;;;;5049015;28;20132;-60
2023/07/06 12:50:26;;;;;;;7.33;2.77;;;;;;;;;;5049567;28;20099;-60
2023/07/06 12:52:54;;;;;;;6.53;2.13;;;;;;;;;;5049798;28;20161;-60
2023/07/06 12:55:21;;;;;;;6.10;3.00;;;;;;;;;;5048965;28;20529;-60
2023/07/06 12:57:48;;;;;;;6.85;2.95;;;;;;;;;;5049720;28;20049;-60
2023/07/06 13:00:16;;;;;;;8.65;3.17;;;;;;;;;;5049016;28;20498;-60
2023/07/06 13:02:42;;;;;;;5.82;2.28;;;;;;;;;;5054522;28;20391;-59
2023/07/06 13:05:14;;;;;;;7.55;2.85;;;;;;;;;;5059414;28;20128;-60
2023/07/06 13:07:41;;;;;;;4.45;2.50;;;;;;;;;;5065219;28;20438;-60
2023/07/06 13:10:13;;;;;;;6.57;2.97;;;;;;;;;;5068996;28;20494;-60
2023/07/06 13:12:42;;;;;;;5.38;2.20;;;;;;;;;;5060413;28;20044;-60
2023/07/06 13:15:14;;;;;;;6.53;2.27;;;;;;;;;;5049254;28;20410;-60
2023/07/06 13:17:40;;;;;;;8.20;2.60;;;;;;;;;;5048677;28;20052;-60
2023/07/06 13:20:07;;;;;;;8.93;2.60;;;;;;;;;;5049043;28;20044;-60
2023/07/06 13:22:34;;;;;;;6.47;2.60;;;;;;;;;;5049094;28;20053;-60
2023/07/06 13:25:03;;;;;;;6.00;2.60;;;;;;;;;;5048774;28;20053;-60
2023/07/06 13:27:29;;;;;;;7.00;2.57;;;;;;;;;;5056225;28;20048;-59
2023/07/06 13:29:55;;;;;;;6.50;2.67;;;;;;;;;;5061789;28;20040;-60
2023/07/06 13:32:22;;;;;;;7.90;3.47;;;;;;;;;;5065530;28;20053;-60
2023/07/06 13:34:49;;;;;;;7.53;2.60;;;;;;;;;;5068115;28;20041;-60
2023/07/06 13:37:29;;;;;;;6.70;2.60;;;;;;;;;;5067855;28;20091;-60
2023/07/06 13:39:59;;;;;;;7.97;2.37;;;;;;;;;;5067270;28;20068;-60
2023/07/06 13:42:25;;;;;;;6.57;2.83;;;;;;;;;;5068840;28;20505;-60
2023/07/06 13:44:51;;;;;;;8.20;3.17;;;;;;;;;;5068020;28;20604;-60
2023/07/06 13:47:18;;;;;;;8.60;3.45;;;;;;;;;;5067743;28;20044;-60
2023/07/06 13:49:45;;;;;;;6.15;3.08;;;;;;;;;;5067851;28;20036;-60
2023/07/06 13:52:14;;;;;;;9.05;3.92;;;;;;;;;;5068593;28;20386;-60
2023/07/06 13:54:40;;;;;;;8.07;3.28;;;;;;;;;;5067734;28;20135;-60
2023/07/06 13:57:06;;;;;;;5.38;2.45;;;;;;;;;;5068160;28;20123;-60
2023/07/06 13:59:33;;;;;;;4.70;1.95;;;;;;;;;;5065780;28;20049;-60
2023/07/06 14:02:02;;;;;;;3.60;1.20;;;;;;;;;;5066883;28;20055;-60
2023/07/06 14:04:32;;;;;;;5.40;1.55;;;;;;;;;;5067213;28;20086;-59
2023/07/06 14:06:58;;;;;;;4.15;1.30;;;;;;;;;;5066325;28;20083;-61
2023/07/06 14:09:24;;;;;;;2.60;1.13;;;;;;;;;;5065642;28;20561;-60
2023/07/06 14:11:50;;;;;;;4.97;1.50;;;;;;;;;;5066663;28;20098;-60
2023/07/06 14:14:16;;;;;;;7.70;1.65;;;;;;;;;;5067738;28;20105;-61
2023/07/06 14:16:42;;;;;;;5.20;1.77;;;;;;;;;;5067872;28;20056;-61
2023/07/06 14:19:10;;;;;;;7.53;2.53;;;;;;;;;;5067530;28;20140;-61
2023/07/06 14:21:37;;;;;;;6.10;1.65;;;;;;;;;;5066889;28;20056;-61
2023/07/06 14:24:03;;;;;;;7.25;2.20;;;;;;;;;;5068076;28;20477;-61
2023/07/06 14:26:29;;;;;;;4.20;1.65;;;;;;;;;;5065547;28;20560;-61
2023/07/06 14:28:55;;;;;;;6.10;2.00;;;;;;;;;;5068171;28;20048;-61
2023/07/06 14:31:23;;;;;;;5.47;2.25;;;;;;;;;;5067976;28;20155;-60
2023/07/06 14:33:49;;;;;;;5.32;2.95;;;;;;;;;;5068009;28;20056;-60
2023/07/06 14:36:15;;;;;;;7.72;2.72;;;;;;;;;;5064605;28;20466;-60
2023/07/06 14:38:41;;;;;;;6.53;2.67;;;;;;;;;;5066723;28;20083;-60
2023/07/06 14:41:08;;;;;;;7.07;2.47;;;;;;;;;;5050665;28;20461;-61